createdAt,value
2017-07-18T19:39:38.274Z,50.5
2017-07-18T19:45:44.412Z,50.2
2017-07-18T19:46:45.837Z,50.0
2017-07-18T19:47:47.265Z,50.3
2017-07-18T19:48:48.695Z,50.2
2017-07-18T19:49:50.123Z,50.0
2017-07-18T20:03:35.947Z,47.1
2017-07-18T20:04:37.373Z,46.3
2017-07-18T20:05:38.796Z,46.3
2017-07-18T20:06:40.221Z,45.9
2017-07-18T20:23:18.054Z,51.7
2017-07-18T20:24:19.469Z,52.9
2017-07-18T20:25:20.917Z,55.8
2017-07-18T20:26:22.345Z,54.1
2017-07-18T20:27:23.771Z,54.3
2017-07-18T20:28:25.200Z,55.2
2017-07-18T20:29:26.633Z,55.6
2017-07-18T20:30:28.081Z,54.9
2017-07-18T20:31:29.550Z,55.6
2017-07-18T20:32:30.993Z,54.9
2017-07-18T20:33:32.421Z,55.8
2017-07-18T20:34:33.850Z,55.1
2017-07-18T20:35:35.280Z,54.3
2017-07-18T20:36:36.709Z,54.2
2017-07-18T20:37:38.158Z,53.7
2017-07-18T20:38:39.586Z,53.7
2017-07-18T20:39:41.014Z,53.7
2017-07-18T20:40:42.444Z,53.3
2017-07-18T20:41:43.871Z,53.2
2017-07-18T20:42:45.326Z,52.6
2017-07-18T20:43:46.767Z,52.9
2017-07-18T20:44:48.194Z,52.9
2017-07-18T20:45:49.620Z,53.8
2017-07-18T20:46:51.053Z,53.6
2017-07-18T20:47:52.475Z,54.1
2017-07-18T20:48:53.924Z,53.3
2017-07-18T20:49:55.366Z,53.9
2017-07-18T20:50:56.795Z,54.3
2017-07-18T20:51:58.227Z,55.8
2017-07-18T20:52:59.672Z,55.3
2017-07-18T20:54:01.100Z,54.1
2017-07-18T20:55:02.540Z,53.9
2017-07-18T20:56:03.984Z,54.0
2017-07-18T20:57:05.420Z,54.3
2017-07-18T20:58:06.844Z,54.5
2017-07-18T20:59:08.275Z,54.1
2017-07-18T21:00:09.696Z,54.1
2017-07-18T21:01:11.149Z,54.6
2017-07-18T21:02:12.574Z,53.3
2017-07-18T21:03:14.004Z,53.8
2017-07-18T21:04:15.428Z,52.0
2017-07-18T21:05:16.857Z,52.4
2017-07-18T21:06:18.306Z,52.6
2017-07-18T21:07:19.733Z,52.2
2017-07-18T21:08:21.158Z,51.5
2017-07-18T21:09:22.591Z,52.1
2017-07-18T21:10:24.023Z,53.6
2017-07-18T21:11:25.473Z,52.4
2017-07-18T21:12:26.909Z,53.1
2017-07-18T21:13:28.335Z,52.6
2017-07-18T21:14:29.758Z,52.9
2017-07-18T21:15:31.651Z,53.5
2017-07-18T21:16:33.105Z,53.0
2017-07-18T21:17:35.089Z,53.5
2017-07-18T21:18:42.696Z,53.8
2017-07-18T21:42:46.851Z,64.1
2017-07-18T21:43:48.272Z,64.8
2017-07-18T21:44:49.690Z,65.2
2017-07-18T21:45:51.141Z,65.5
2017-07-18T21:46:52.569Z,65.1
2017-07-18T21:47:53.993Z,64.7
2017-07-18T21:48:55.422Z,64.4
2017-07-18T21:49:56.847Z,65.1
2017-07-18T21:50:58.286Z,64.8
2017-07-18T21:51:59.714Z,64.7
2017-07-18T21:53:01.134Z,64.4
2017-07-18T21:54:02.569Z,65.4
2017-07-18T21:55:03.998Z,65.6
2017-07-18T21:56:05.440Z,66.2
2017-07-18T21:57:06.869Z,66.2
2017-07-18T21:58:08.294Z,66.7
2017-07-18T21:59:09.721Z,66.5
2017-07-18T22:00:11.149Z,66.9
2017-07-18T22:01:12.592Z,67.5
2017-07-18T22:02:14.014Z,67.9
2017-07-18T22:03:15.442Z,67.9
2017-07-18T22:04:16.867Z,68.4
2017-07-18T22:05:18.299Z,68.8
2017-07-18T22:06:19.732Z,68.8
2017-07-18T22:07:21.157Z,68.6
2017-07-18T22:08:22.591Z,69.1
2017-07-18T22:09:24.013Z,68.6
2017-07-18T22:10:25.443Z,68.6
2017-07-18T22:11:26.883Z,68.5
2017-07-18T22:12:28.311Z,67.6
2017-07-18T22:13:29.734Z,67.4
2017-07-18T22:14:31.163Z,68.0
2017-07-18T22:15:32.591Z,67.8
2017-07-18T22:16:34.042Z,68.6
2017-07-18T22:17:35.471Z,68.9
2017-07-18T22:18:36.922Z,69.8
2017-07-18T22:19:38.351Z,70.8
2017-07-18T22:20:39.773Z,70.0
2017-07-18T22:21:41.204Z,70.2
2017-07-18T22:22:42.630Z,69.7
2017-07-18T22:23:44.098Z,70.1
2017-07-18T22:24:45.571Z,69.3
2017-07-18T22:25:47.001Z,70.0
2017-07-18T22:26:48.425Z,69.9
2017-07-18T22:27:49.855Z,70.1
2017-07-18T22:28:51.301Z,70.5
2017-07-18T22:29:52.723Z,70.5
2017-07-18T22:30:54.283Z,70.8
2017-07-18T22:31:55.705Z,70.4
2017-07-18T22:32:57.130Z,70.4
2017-07-18T22:33:58.570Z,70.6
2017-07-18T22:34:59.995Z,70.6
2017-07-18T22:36:01.426Z,70.6
2017-07-18T22:37:02.857Z,71.6
2017-07-18T22:38:04.293Z,70.8
2017-07-18T22:39:05.754Z,71.9
2017-07-18T22:40:07.180Z,70.8
2017-07-18T22:41:08.612Z,70.6
2017-07-18T22:42:10.035Z,70.3
2017-07-18T22:43:11.460Z,70.8
2017-07-18T22:44:12.902Z,69.8
2017-07-18T22:45:14.366Z,70.2
2017-07-18T22:46:15.800Z,69.5
2017-07-18T22:47:17.228Z,69.8
2017-07-18T22:48:18.658Z,69.8
2017-07-18T22:49:20.090Z,69.5
2017-07-18T22:50:21.540Z,68.9
2017-07-18T22:51:22.968Z,70.8
2017-07-18T22:52:24.396Z,69.3
2017-07-18T22:53:25.833Z,69.4
2017-07-18T22:54:27.257Z,70.9
2017-07-18T22:55:28.701Z,69.4
2017-07-18T22:56:30.128Z,68.4
2017-07-18T22:57:31.546Z,69.2
2017-07-18T22:58:32.971Z,68.8
2017-07-18T22:59:34.397Z,69.6
2017-07-18T23:00:35.838Z,69.5
2017-07-18T23:01:37.271Z,69.6
2017-07-18T23:02:38.685Z,68.7
2017-07-18T23:03:40.117Z,68.7
2017-07-18T23:04:41.534Z,68.8
2017-07-18T23:05:42.978Z,70.1
2017-07-18T23:06:44.404Z,70.2
2017-07-18T23:07:45.830Z,69.9
2017-07-18T23:08:47.256Z,70.1
2017-07-18T23:09:48.674Z,70.6
2017-07-18T23:10:50.118Z,69.3
2017-07-18T23:11:51.551Z,68.2
2017-07-18T23:12:52.982Z,67.9
2017-07-18T23:13:54.406Z,67.9
2017-07-18T23:14:55.831Z,68.0
2017-07-18T23:15:57.275Z,68.0
2017-07-18T23:16:58.692Z,68.0
2017-07-18T23:18:00.123Z,68.1
2017-07-18T23:19:01.561Z,68.3
2017-07-18T23:20:02.985Z,67.8
2017-07-18T23:21:04.429Z,68.5
2017-07-18T23:22:05.856Z,68.9
2017-07-18T23:23:07.290Z,69.3
2017-07-18T23:24:08.708Z,69.6
2017-07-18T23:25:10.131Z,70.4
2017-07-18T23:26:11.572Z,70.4
2017-07-18T23:27:13.011Z,71.1
2017-07-18T23:28:14.442Z,71.3
2017-07-18T23:29:15.868Z,71.5
2017-07-18T23:30:17.293Z,70.9
2017-07-18T23:31:18.718Z,72.2
2017-07-18T23:32:20.179Z,72.3
2017-07-18T23:33:21.580Z,72.6
2017-07-18T23:34:23.009Z,72.7
2017-07-18T23:35:24.437Z,72.7
2017-07-18T23:36:25.862Z,72.3
2017-07-18T23:37:27.307Z,72.0
2017-07-18T23:38:28.742Z,72.3
2017-07-18T23:39:30.164Z,72.4
2017-07-18T23:40:31.598Z,72.4
2017-07-18T23:41:33.019Z,71.8
2017-07-18T23:42:34.445Z,71.6
2017-07-18T23:43:35.888Z,72.6
2017-07-18T23:44:37.314Z,71.7
2017-07-18T23:45:38.738Z,71.7
2017-07-18T23:46:40.155Z,71.4
2017-07-18T23:47:41.576Z,71.5
2017-07-18T23:48:43.018Z,72.0
2017-07-18T23:49:44.451Z,72.3
2017-07-18T23:50:45.899Z,72.1
2017-07-18T23:51:47.324Z,71.9
2017-07-18T23:52:48.750Z,71.9
2017-07-18T23:53:50.192Z,72.3
2017-07-18T23:54:51.614Z,72.6
2017-07-18T23:55:53.038Z,72.7
2017-07-18T23:56:54.462Z,72.2
2017-07-18T23:57:55.886Z,72.7
2017-07-18T23:58:57.329Z,72.5
2017-07-18T23:59:58.752Z,71.9
